Terminal Aerodrome Forecast
Issued by NWS Atlanta, GA

Home | Current Version | Previous Version | Text Only | Print | Product List | Glossary On
Versions: 1 2 3 4 5 6 7 8 9 10 11 12 13 14 15 16 17 18 19 20 21 22 23 24 25 26 27 28 29
000
FTAK31 PAJN 280526
TAFAHN
TAF
PAHN 280526Z 2806/2906 09012G22KT 6SM -RA BR SCT015 BKN025 OVC050
     FM280900 VRB06KT 6SM -RA BR OVC015
     FM281200 30009KT P6SM VCSH BKN020 OVC040
     FM281600 30012G20KT P6SM VCSH SCT020 OVC035
     FM282200 30010KT P6SM -SHRA SCT020 OVC035
     FM290300 30005KT P6SM -SHRA BKN035 OVC050
      AMD LTD TO CLD VIS AND WIND=

USA.gov is the U.S. government's official web portal to all federal, state and local government web resources and services.